createdAt,value
2023-10-26T00:02:21.579Z,101588.47
2023-10-26T00:04:49.987Z,101594.44
2023-10-26T00:07:18.339Z,101593.53
2023-10-26T00:09:46.804Z,101579.53
2023-10-26T00:12:15.310Z,101575.97
2023-10-26T00:14:43.912Z,101589.03
2023-10-26T00:17:13.820Z,101582.97
2023-10-26T00:19:42.285Z,101579.19
2023-10-26T00:22:10.713Z,101575.97
2023-10-26T00:24:39.893Z,101579.34
2023-10-26T00:27:08.437Z,101570.66
2023-10-26T00:29:36.778Z,101572.34
2023-10-26T00:32:06.446Z,101556.28
2023-10-26T00:34:36.753Z,101562.16
2023-10-26T00:37:05.951Z,101567.31
2023-10-26T00:39:34.266Z,101571.56
2023-10-26T00:42:02.769Z,101554.88
2023-10-26T00:44:31.128Z,101556.81
2023-10-26T00:47:00.055Z,101562.78
2023-10-26T00:49:28.588Z,101569.59
2023-10-26T00:52:03.497Z,101563.56
2023-10-26T00:54:33.801Z,101552.22
2023-10-26T00:57:03.384Z,101556.66
2023-10-26T00:59:33.747Z,101559.25
2023-10-26T01:02:04.253Z,101556.56
2023-10-26T01:04:32.720Z,101550.47
2023-10-26T01:07:04.204Z,101524.75
2023-10-26T01:09:32.758Z,101542.66
2023-10-26T01:12:01.389Z,101550.28
2023-10-26T01:14:30.117Z,101544.94
2023-10-26T01:16:58.662Z,101537.16
2023-10-26T01:19:39.492Z,101535.38
2023-10-26T01:22:09.802Z,101543.81
2023-10-26T01:24:38.686Z,101541.25
2023-10-26T01:27:07.822Z,101541.25
2023-10-26T01:29:36.604Z,101516.41
2023-10-26T01:32:05.301Z,101534.16
2023-10-26T01:34:34.063Z,101536.78
2023-10-26T01:37:05.606Z,101538.59
2023-10-26T01:39:35.911Z,101536.78
2023-10-26T01:42:04.340Z,101535.91
2023-10-26T01:44:32.713Z,101538.41
2023-10-26T01:47:01.177Z,101524.41
2023-10-26T01:49:29.733Z,101535.66
2023-10-26T01:51:58.060Z,101523.78
2023-10-26T01:54:26.625Z,101522.09
2023-10-26T01:56:56.375Z,101529.09
2023-10-26T01:59:24.801Z,101530.09
2023-10-26T02:01:53.248Z,101480.63
2023-10-26T02:04:21.715Z,101509.88
2023-10-26T02:06:50.382Z,101515.34
2023-10-26T02:09:18.925Z,101515.88
2023-10-26T02:11:47.300Z,101520.25
2023-10-26T02:14:17.130Z,101523.69
2023-10-26T02:16:46.276Z,101521.03
2023-10-26T02:19:19.083Z,101527.78
2023-10-26T02:21:48.207Z,101518.91
2023-10-26T02:24:16.615Z,101515.44
2023-10-26T02:26:45.054Z,101517.16
2023-10-26T02:29:17.206Z,101514.38
2023-10-26T02:31:46.026Z,101517.69
2023-10-26T02:34:14.308Z,101514.81
2023-10-26T02:36:42.777Z,101517.38
2023-10-26T02:39:11.083Z,101513.84
2023-10-26T02:41:40.063Z,101506.84
2023-10-26T02:44:08.464Z,101507.75
2023-10-26T02:46:38.225Z,101500.66
2023-10-26T02:49:06.695Z,101509.44
2023-10-26T02:51:35.931Z,101499.16
2023-10-26T02:54:04.371Z,101500.03
2023-10-26T02:56:32.750Z,101497.22
2023-10-26T02:59:01.151Z,101494.88
2023-10-26T03:01:35.071Z,101496.50
2023-10-26T03:04:05.365Z,101485.88
2023-10-26T03:06:38.450Z,101498.38
2023-10-26T03:09:09.342Z,101491.44
2023-10-26T03:11:38.159Z,101479.75
2023-10-26T03:14:06.777Z,101489.59
2023-10-26T03:16:35.686Z,101493.91
2023-10-26T03:19:05.417Z,101487.03
2023-10-26T03:21:33.973Z,101493.75
2023-10-26T03:24:03.867Z,101492.84
2023-10-26T03:26:33.270Z,101485.97
2023-10-26T03:29:01.708Z,101490.22
2023-10-26T03:31:30.328Z,101473.09
2023-10-26T03:33:58.923Z,101491.78
2023-10-26T03:36:28.731Z,101490.03
2023-10-26T03:38:57.594Z,101491.78
2023-10-26T03:41:26.152Z,101496.03
2023-10-26T03:43:56.030Z,101496.84
2023-10-26T03:46:24.616Z,101431.56
2023-10-26T03:48:52.984Z,101485.59
2023-10-26T03:51:22.217Z,101488.97
2023-10-26T03:53:52.073Z,101486.50
2023-10-26T03:56:20.632Z,101482.13
2023-10-26T03:58:49.229Z,101463.25
2023-10-26T04:01:17.765Z,101485.41
2023-10-26T04:03:46.175Z,101481.00
2023-10-26T04:06:14.617Z,101481.00
2023-10-26T04:08:42.993Z,101474.06
2023-10-26T04:11:17.885Z,101477.47
2023-10-26T04:13:46.901Z,101481.78
2023-10-26T04:16:15.221Z,101477.63
2023-10-26T04:18:43.765Z,101439.59
2023-10-26T04:21:12.128Z,101475.16
2023-10-26T04:23:40.620Z,101479.41
2023-10-26T04:26:10.284Z,101476.84
2023-10-26T04:28:50.824Z,101467.19
2023-10-26T04:31:20.717Z,101476.84
2023-10-26T04:33:49.192Z,101445.03
2023-10-26T04:36:17.747Z,101464.44
2023-10-26T04:38:46.174Z,101463.00
2023-10-26T04:41:14.760Z,101468.16
2023-10-26T04:43:44.470Z,101470.72
2023-10-26T04:46:12.902Z,101462.19
2023-10-26T04:48:41.432Z,101458.75
2023-10-26T04:51:10.423Z,101467.44
2023-10-26T04:53:38.935Z,101460.59
2023-10-26T04:56:08.232Z,101454.59
2023-10-26T04:58:36.578Z,101453.88
2023-10-26T05:01:06.528Z,101452.13
2023-10-26T05:03:35.446Z,101443.53
2023-10-26T05:06:04.341Z,101450.53
2023-10-26T05:08:32.817Z,101446.34
2023-10-26T05:11:01.513Z,101445.53
2023-10-26T05:13:30.453Z,101450.66
2023-10-26T05:15:58.874Z,101452.47
2023-10-26T05:18:28.737Z,101450.88
2023-10-26T05:20:57.109Z,101454.41
2023-10-26T05:23:25.530Z,101376.66
2023-10-26T05:25:53.906Z,101418.63
2023-10-26T05:28:22.224Z,101447.84
2023-10-26T05:30:50.583Z,101448.81
2023-10-26T05:33:19.010Z,101449.78
2023-10-26T05:35:48.848Z,101441.31
2023-10-26T05:38:19.930Z,101438.53
2023-10-26T05:40:52.528Z,101446.78
2023-10-26T05:43:20.940Z,101446.94
2023-10-26T05:45:49.325Z,101442.84
2023-10-26T05:48:18.117Z,101442.16
2023-10-26T05:50:46.604Z,101440.56
2023-10-26T05:53:16.613Z,101430.09
2023-10-26T05:55:45.064Z,101437.53
2023-10-26T05:58:13.404Z,101436.09
2023-10-26T06:00:41.833Z,101438.84
2023-10-26T06:03:10.427Z,101427.66
2023-10-26T06:05:38.794Z,101430.66
2023-10-26T06:08:07.411Z,101436.91
2023-10-26T06:10:37.872Z,101434.63
2023-10-26T06:13:08.667Z,101442.56
2023-10-26T06:15:37.728Z,101410.50
2023-10-26T06:18:06.737Z,101390.34
2023-10-26T06:20:35.387Z,101429.56
2023-10-26T06:23:03.819Z,101429.00
2023-10-26T06:25:38.431Z,101424.91
2023-10-26T06:28:07.054Z,101411.28
2023-10-26T06:30:35.735Z,101398.63
2023-10-26T06:33:04.354Z,101415.69
2023-10-26T06:35:33.589Z,101420.25
2023-10-26T06:38:04.067Z,101410.38
2023-10-26T06:40:32.497Z,101388.34
2023-10-26T06:43:02.874Z,101416.06
2023-10-26T06:45:31.434Z,101412.91
2023-10-26T06:48:00.042Z,101410.66
2023-10-26T06:50:28.532Z,101407.59
2023-10-26T06:52:56.953Z,101404.44
2023-10-26T06:55:30.932Z,101397.56
2023-10-26T06:58:00.244Z,101409.38
2023-10-26T07:00:30.101Z,101393.13
2023-10-26T07:02:58.665Z,101405.66
2023-10-26T07:05:28.369Z,101400.00
2023-10-26T07:07:56.800Z,101375.75
2023-10-26T07:10:25.450Z,101396.25
2023-10-26T07:12:53.952Z,101392.19
2023-10-26T07:15:22.693Z,101379.53
2023-10-26T07:17:53.218Z,101382.97
2023-10-26T07:20:21.830Z,101392.03
2023-10-26T07:22:50.357Z,101382.09
2023-10-26T07:25:18.802Z,101317.28
2023-10-26T07:27:48.784Z,101377.13
2023-10-26T07:30:17.339Z,101383.66
2023-10-26T07:32:45.836Z,101370.34
2023-10-26T07:35:16.459Z,101371.66
2023-10-26T07:37:52.200Z,101365.91
2023-10-26T07:40:29.396Z,101365.53
2023-10-26T07:42:59.132Z,101365.19
2023-10-26T07:45:27.804Z,101357.31
2023-10-26T07:48:01.457Z,101364.78
2023-10-26T07:50:32.220Z,101347.88
2023-10-26T07:53:01.275Z,101340.22
2023-10-26T07:55:29.673Z,101335.53
2023-10-26T07:57:58.278Z,101324.47
2023-10-26T08:00:26.678Z,101337.84
2023-10-26T08:02:55.064Z,101335.34
2023-10-26T08:05:23.682Z,101331.22
2023-10-26T08:07:53.857Z,101322.03
2023-10-26T08:10:22.328Z,101318.44
2023-10-26T08:12:52.590Z,101271.50
2023-10-26T08:16:33.623Z,101275.97
2023-10-26T08:18:10.094Z,101309.22
2023-10-26T08:20:38.781Z,101279.19
2023-10-26T08:23:08.710Z,101245.22
2023-10-26T08:25:38.056Z,101292.56
2023-10-26T08:28:06.553Z,101278.59
2023-10-26T08:30:34.925Z,101285.97
2023-10-26T08:33:05.680Z,101255.97
2023-10-26T08:35:34.693Z,101273.97
2023-10-26T08:38:03.241Z,101279.81
2023-10-26T08:40:33.241Z,101235.38
2023-10-26T08:43:07.119Z,101247.19
2023-10-26T08:45:38.407Z,101279.47
2023-10-26T08:48:11.600Z,101271.97
2023-10-26T08:50:40.165Z,101264.38
2023-10-26T08:53:08.687Z,101271.72
2023-10-26T08:55:40.250Z,101259.84
2023-10-26T08:58:09.302Z,101261.94
2023-10-26T09:00:39.480Z,101232.44
2023-10-26T09:03:08.258Z,101209.06
2023-10-26T09:05:53.435Z,101245.91
2023-10-26T09:08:27.896Z,101246.78
2023-10-26T09:10:58.209Z,101244.19
2023-10-26T09:13:29.106Z,101243.41
2023-10-26T09:16:00.912Z,101246.91
2023-10-26T09:18:29.938Z,101234.91
2023-10-26T09:21:07.032Z,101235.75
2023-10-26T09:23:36.948Z,101230.63
2023-10-26T09:26:09.204Z,101229.47
2023-10-26T09:28:56.448Z,101211.06
2023-10-26T09:31:26.259Z,101229.88
2023-10-26T09:33:54.878Z,101219.56
2023-10-26T09:36:23.356Z,101224.59
2023-10-26T09:38:51.831Z,101220.19
2023-10-26T09:41:21.732Z,101212.19
2023-10-26T09:43:50.443Z,101216.28
2023-10-26T09:46:19.718Z,101209.19
2023-10-26T09:48:48.645Z,101209.91
2023-10-26T09:51:19.009Z,101207.22
2023-10-26T09:53:49.534Z,101207.63
2023-10-26T09:56:26.362Z,101200.59
2023-10-26T09:58:58.210Z,101197.66
2023-10-26T10:01:34.270Z,101178.25
2023-10-26T10:04:04.048Z,101193.03
2023-10-26T10:07:00.076Z,101151.03
2023-10-26T10:09:30.464Z,101182.38
2023-10-26T10:12:35.547Z,101182.47
2023-10-26T10:18:13.213Z,101178.59
2023-10-26T10:20:42.817Z,101165.34
2023-10-26T10:23:30.414Z,101166.22
2023-10-26T10:26:11.760Z,101170.56
2023-10-26T10:28:55.453Z,101160.16
2023-10-26T10:31:26.108Z,101155.53
2023-10-26T10:34:06.913Z,101156.91
2023-10-26T10:37:11.901Z,101162.16
2023-10-26T10:40:01.906Z,101150.72
2023-10-26T10:42:33.323Z,101155.75
2023-10-26T10:45:05.500Z,101143.44
2023-10-26T10:47:34.571Z,101154.22
2023-10-26T10:50:19.493Z,101150.66
2023-10-26T10:52:48.843Z,101151.44
2023-10-26T10:55:22.605Z,101133.97
2023-10-26T10:57:58.428Z,101146.78
2023-10-26T11:00:29.487Z,101141.59
2023-10-26T11:03:03.075Z,101143.38
2023-10-26T11:05:38.886Z,101133.78
2023-10-26T11:08:08.265Z,101124.03
2023-10-26T11:10:37.271Z,101133.06
2023-10-26T11:13:06.502Z,101128.56
2023-10-26T11:15:38.331Z,101126.19
2023-10-26T11:18:09.917Z,101128.72
2023-10-26T11:20:40.399Z,101080.44
2023-10-26T11:23:09.900Z,101120.13
2023-10-26T11:25:38.986Z,101108.88
2023-10-26T11:28:08.725Z,101122.50
2023-10-26T11:30:52.005Z,101116.25
2023-10-26T11:33:34.524Z,101074.88
2023-10-26T11:36:03.771Z,101111.00
2023-10-26T11:38:33.473Z,101105.00
2023-10-26T11:41:02.179Z,101097.28
2023-10-26T11:43:34.553Z,101070.91
2023-10-26T11:46:05.441Z,101097.44
2023-10-26T11:48:34.823Z,101098.34
2023-10-26T11:51:07.831Z,101091.53
2023-10-26T11:53:40.043Z,101080.19
2023-10-26T11:56:08.865Z,101081.00
2023-10-26T11:58:37.244Z,101083.75
2023-10-26T12:01:07.396Z,101074.38
2023-10-26T12:03:36.965Z,101071.00
2023-10-26T12:06:05.764Z,101076.97
2023-10-26T12:08:34.251Z,101052.69
2023-10-26T12:11:02.669Z,101062.41
2023-10-26T12:13:31.098Z,101050.16
2023-10-26T12:15:59.564Z,101061.66
2023-10-26T12:18:29.531Z,101055.53
2023-10-26T12:20:58.094Z,101048.56
2023-10-26T12:23:26.595Z,101034.19
2023-10-26T12:25:55.040Z,101044.66
2023-10-26T12:28:26.398Z,101048.78
2023-10-26T12:30:56.453Z,101052.97
2023-10-26T12:33:25.830Z,101024.19
2023-10-26T12:35:55.780Z,101034.03
2023-10-26T12:38:24.894Z,101025.09
2023-10-26T12:40:53.372Z,101028.69
2023-10-26T12:43:21.830Z,101031.28
2023-10-26T12:45:50.349Z,101033.28
2023-10-26T12:48:19.282Z,100993.91
2023-10-26T12:50:49.759Z,101020.38
2023-10-26T12:53:19.681Z,101022.84
2023-10-26T12:55:48.335Z,101011.28
2023-10-26T12:58:16.833Z,100982.13
2023-10-26T13:00:46.699Z,101005.06
2023-10-26T13:03:15.270Z,101007.69
2023-10-26T13:05:43.662Z,101009.53
2023-10-26T13:08:12.430Z,101001.69
2023-10-26T13:10:44.314Z,101011.22
2023-10-26T13:13:13.987Z,101011.81
2023-10-26T13:15:42.754Z,100992.41
2023-10-26T13:18:11.356Z,101001.84
2023-10-26T13:20:39.915Z,101001.84
2023-10-26T13:23:08.359Z,101000.97
2023-10-26T13:25:42.891Z,100996.66
2023-10-26T13:28:12.781Z,100969.41
2023-10-26T13:30:41.238Z,100987.06
2023-10-26T13:33:10.964Z,100987.97
2023-10-26T13:35:39.743Z,100987.88
2023-10-26T13:38:13.513Z,100980.00
2023-10-26T13:40:44.542Z,100956.16
2023-10-26T13:43:16.786Z,100976.28
2023-10-26T13:45:45.869Z,100984.72
2023-10-26T13:48:15.899Z,100911.84
2023-10-26T13:50:47.190Z,100974.94
2023-10-26T13:53:17.025Z,100967.88
2023-10-26T13:55:47.331Z,100981.69
2023-10-26T13:58:15.757Z,100975.44
2023-10-26T14:00:44.262Z,100979.47
2023-10-26T14:03:12.792Z,100967.28
2023-10-26T14:05:41.607Z,100968.06
2023-10-26T14:08:10.036Z,100979.19
2023-10-26T14:10:41.799Z,100975.63
2023-10-26T14:13:12.366Z,100971.13
2023-10-26T14:15:40.800Z,100967.53
2023-10-26T14:18:09.953Z,100940.19
2023-10-26T14:20:38.381Z,100963.88
2023-10-26T14:23:07.001Z,100964.59
2023-10-26T14:25:35.668Z,100966.28
2023-10-26T14:28:04.210Z,100967.06
2023-10-26T14:30:35.701Z,100939.91
2023-10-26T14:33:04.417Z,100958.16
2023-10-26T14:35:33.259Z,100953.03
2023-10-26T14:38:02.804Z,100955.44
2023-10-26T14:40:31.451Z,100951.06
2023-10-26T14:42:59.923Z,100950.97
2023-10-26T14:45:28.381Z,100954.34
2023-10-26T14:47:58.512Z,100945.53
2023-10-26T14:50:27.291Z,100933.22
2023-10-26T14:52:55.781Z,100954.16
2023-10-26T14:55:24.756Z,100952.31
2023-10-26T14:57:53.194Z,100919.81
2023-10-26T15:00:21.862Z,100937.41
2023-10-26T15:02:50.768Z,100941.72
2023-10-26T15:05:20.657Z,100940.81
2023-10-26T15:07:49.115Z,100947.75
2023-10-26T15:10:23.064Z,100947.66
2023-10-26T15:12:55.469Z,100888.72
2023-10-26T15:15:24.886Z,100945.81
2023-10-26T15:17:54.335Z,100940.53
2023-10-26T15:20:24.071Z,100942.19
2023-10-26T15:22:52.508Z,100942.09
2023-10-26T15:25:21.308Z,100936.94
2023-10-26T15:27:49.869Z,100941.19
2023-10-26T15:30:18.640Z,100937.69
2023-10-26T15:32:47.135Z,100926.28
2023-10-26T15:35:15.923Z,100931.47
2023-10-26T15:37:46.998Z,100938.38
2023-10-26T15:40:15.473Z,100933.19
2023-10-26T15:42:44.153Z,100930.53
2023-10-26T15:45:13.840Z,100929.59
2023-10-26T15:47:42.897Z,100930.34
2023-10-26T15:50:12.191Z,100926.78
2023-10-26T15:52:40.637Z,100929.31
2023-10-26T15:55:11.079Z,100922.16
2023-10-26T15:57:39.549Z,100920.50
2023-10-26T16:00:10.738Z,100926.47
2023-10-26T16:02:39.879Z,100915.25
2023-10-26T16:05:09.040Z,100925.47
2023-10-26T16:07:37.950Z,100876.28
2023-10-26T16:10:07.355Z,100919.22
2023-10-26T16:12:37.390Z,100918.25
2023-10-26T16:15:06.707Z,100873.50
2023-10-26T16:17:37.847Z,100908.59
2023-10-26T16:20:07.530Z,100911.13
2023-10-26T16:22:35.949Z,100916.16
2023-10-26T16:25:04.715Z,100901.41
2023-10-26T16:27:33.171Z,100891.59
2023-10-26T16:30:02.987Z,100904.78
2023-10-26T16:32:35.884Z,100896.75
2023-10-26T16:35:06.723Z,100908.94
2023-10-26T16:37:35.293Z,100905.44
2023-10-26T16:40:03.843Z,100906.19
2023-10-26T16:42:32.451Z,100899.16
2023-10-26T16:45:02.512Z,100885.78
2023-10-26T16:47:44.167Z,100898.16
2023-10-26T16:50:17.273Z,100875.25
2023-10-26T16:52:45.688Z,100901.47
2023-10-26T16:55:14.134Z,100891.88
2023-10-26T16:57:42.905Z,100821.56
2023-10-26T17:00:14.806Z,100887.44
2023-10-26T17:02:43.385Z,100869.84
2023-10-26T17:05:12.094Z,100883.00
2023-10-26T17:07:43.001Z,100889.03
2023-10-26T17:10:11.952Z,100875.84
2023-10-26T17:12:40.640Z,100823.28
2023-10-26T17:15:15.424Z,100887.09
2023-10-26T17:17:45.594Z,100891.41
2023-10-26T17:20:14.266Z,100880.16
2023-10-26T17:22:44.488Z,100889.56
2023-10-26T17:25:14.485Z,100888.63
2023-10-26T17:27:43.019Z,100891.13
2023-10-26T17:30:12.302Z,100859.47
2023-10-26T17:32:40.805Z,100857.72
2023-10-26T17:35:11.896Z,100880.75
2023-10-26T17:37:40.379Z,100884.91
2023-10-26T17:40:09.410Z,100881.19
2023-10-26T17:42:38.789Z,100890.78
2023-10-26T17:45:07.875Z,100864.31
2023-10-26T17:47:36.569Z,100876.56
2023-10-26T17:50:05.283Z,100887.06
2023-10-26T17:52:36.261Z,100871.44
2023-10-26T17:55:04.834Z,100880.94
2023-10-26T17:57:37.990Z,100882.66
2023-10-26T18:00:09.546Z,100885.16
2023-10-26T18:02:42.925Z,100883.38
2023-10-26T18:05:11.906Z,100871.84
2023-10-26T18:07:41.661Z,100847.13
2023-10-26T18:10:10.769Z,100858.47
2023-10-26T18:12:39.259Z,100871.97
2023-10-26T18:15:09.555Z,100872.75
2023-10-26T18:17:38.199Z,100856.00
2023-10-26T18:20:07.704Z,100867.47
2023-10-26T18:22:36.130Z,100851.63
2023-10-26T18:25:06.566Z,100868.19
2023-10-26T18:27:35.025Z,100862.09
2023-10-26T18:30:04.028Z,100856.81
2023-10-26T18:32:33.986Z,100856.81
2023-10-26T18:35:04.149Z,100833.88
2023-10-26T18:37:33.901Z,100864.47
2023-10-26T18:40:02.299Z,100860.94
2023-10-26T18:42:33.892Z,100855.78
2023-10-26T18:45:02.371Z,100853.94
2023-10-26T18:47:33.639Z,100825.78
2023-10-26T18:50:02.300Z,100855.56
2023-10-26T18:52:33.039Z,100846.06
2023-10-26T18:55:01.737Z,100815.13
2023-10-26T18:57:31.495Z,100801.22
2023-10-26T19:00:01.354Z,100843.34
2023-10-26T19:02:32.724Z,100775.59
2023-10-26T19:05:01.558Z,100837.22
2023-10-26T19:07:32.701Z,100839.75
2023-10-26T19:10:01.155Z,100838.81
2023-10-26T19:12:30.133Z,100838.63
2023-10-26T19:14:58.585Z,100843.69
2023-10-26T19:17:28.527Z,100844.41
2023-10-26T19:19:56.960Z,100831.16
2023-10-26T19:22:25.380Z,100837.53
2023-10-26T19:24:54.069Z,100835.75
2023-10-26T19:27:22.541Z,100832.25
2023-10-26T19:29:51.077Z,100817.00
2023-10-26T19:32:20.119Z,100828.59
2023-10-26T19:34:51.915Z,100831.94
2023-10-26T19:37:20.394Z,100784.31
2023-10-26T19:39:49.078Z,100824.91
2023-10-26T19:42:17.459Z,100830.00
2023-10-26T19:44:47.418Z,100818.53
2023-10-26T19:47:17.397Z,100823.00
2023-10-26T19:49:46.039Z,100822.06
2023-10-26T19:52:15.958Z,100822.84
2023-10-26T19:54:45.598Z,100820.97
2023-10-26T19:57:14.625Z,100819.25
2023-10-26T19:59:44.556Z,100779.66
2023-10-26T20:02:13.700Z,100803.41
2023-10-26T20:04:42.254Z,100810.44
2023-10-26T20:07:10.820Z,100759.38
2023-10-26T20:09:41.528Z,100813.72
2023-10-26T20:12:10.504Z,100805.94
2023-10-26T20:14:39.038Z,100746.19
2023-10-26T20:17:07.598Z,100737.38
2023-10-26T20:19:36.317Z,100806.56
2023-10-26T20:22:04.986Z,100809.09
2023-10-26T20:24:33.479Z,100799.53
2023-10-26T20:27:03.600Z,100804.69
2023-10-26T20:29:32.131Z,100788.22
2023-10-26T20:32:00.487Z,100723.84
2023-10-26T20:34:29.112Z,100783.59
2023-10-26T20:36:58.650Z,100746.75
2023-10-26T20:39:27.090Z,100788.88
2023-10-26T20:41:55.553Z,100766.16
2023-10-26T20:44:25.324Z,100775.75
2023-10-26T20:46:53.730Z,100783.59
2023-10-26T20:49:22.253Z,100745.03
2023-10-26T20:51:50.631Z,100782.72
2023-10-26T20:54:19.043Z,100776.56
2023-10-26T20:56:47.411Z,100766.25
2023-10-26T20:59:15.778Z,100754.72
2023-10-26T21:01:45.538Z,100767.91
2023-10-26T21:04:16.538Z,100762.75
2023-10-26T21:06:47.819Z,100764.38
2023-10-26T21:09:16.561Z,100738.97
2023-10-26T21:11:44.849Z,100765.22
2023-10-26T21:14:13.336Z,100762.50
2023-10-26T21:16:43.518Z,100755.59
2023-10-26T21:19:15.325Z,100745.03
2023-10-26T21:21:43.819Z,100746.81
2023-10-26T21:24:12.341Z,100755.34
2023-10-26T21:26:40.845Z,100743.97
2023-10-26T21:29:09.280Z,100743.16
2023-10-26T21:31:37.721Z,100700.88
2023-10-26T21:34:06.310Z,100739.66
2023-10-26T21:36:36.232Z,100744.81
2023-10-26T21:39:05.572Z,100741.31
2023-10-26T21:41:34.983Z,100716.69
2023-10-26T21:44:03.578Z,100734.38
2023-10-26T21:46:32.163Z,100737.78
2023-10-26T21:49:00.930Z,100737.72
2023-10-26T21:51:29.371Z,100741.09
2023-10-26T21:53:59.243Z,100736.72
2023-10-26T21:56:27.699Z,100737.50
2023-10-26T21:58:57.453Z,100735.72
2023-10-26T22:01:26.035Z,100731.41
2023-10-26T22:04:18.075Z,100654.94
2023-10-26T22:06:44.315Z,100736.41
2023-10-26T22:09:14.148Z,100716.59
2023-10-26T22:11:42.927Z,100721.75
2023-10-26T22:14:11.358Z,100721.72
2023-10-26T22:16:41.304Z,100713.94
2023-10-26T22:19:10.030Z,100716.44
2023-10-26T22:21:38.647Z,100693.59
2023-10-26T22:24:08.123Z,100712.94
2023-10-26T22:26:37.911Z,100702.50
2023-10-26T22:29:10.079Z,100706.78
2023-10-26T22:31:42.069Z,100706.06
2023-10-26T22:34:10.562Z,100695.47
2023-10-26T22:36:39.136Z,100688.59
2023-10-26T22:39:07.517Z,100702.50
2023-10-26T22:41:37.416Z,100699.94
2023-10-26T22:44:06.187Z,100691.34
2023-10-26T22:46:34.557Z,100698.13
2023-10-26T22:49:03.113Z,100703.19
2023-10-26T22:51:31.604Z,100695.47
2023-10-26T22:53:59.878Z,100673.25
2023-10-26T22:56:28.228Z,100687.38
2023-10-26T22:58:57.999Z,100646.28
2023-10-26T23:01:26.647Z,100678.03
2023-10-26T23:03:55.102Z,100676.28
2023-10-26T23:06:23.995Z,100676.34
2023-10-26T23:08:52.461Z,100639.50
2023-10-26T23:11:20.842Z,100676.28
2023-10-26T23:13:49.155Z,100669.38
2023-10-26T23:16:19.141Z,100657.09
2023-10-26T23:19:12.529Z,100658.91
2023-10-26T23:21:40.894Z,100655.47
2023-10-26T23:24:09.717Z,100629.13
2023-10-26T23:26:38.130Z,100630.72
2023-10-26T23:29:06.662Z,100650.03
2023-10-26T23:31:36.774Z,100649.19
2023-10-26T23:34:05.320Z,100637.63
2023-10-26T23:36:33.667Z,100646.44
2023-10-26T23:39:02.112Z,100644.66
2023-10-26T23:41:30.762Z,100639.41
2023-10-26T23:43:59.615Z,100636.78
2023-10-26T23:46:27.945Z,100584.25
2023-10-26T23:48:57.989Z,100623.84
2023-10-26T23:51:26.460Z,100628.97
2023-10-26T23:53:54.938Z,100625.56
2023-10-26T23:56:24.588Z,100623.91
2023-10-26T23:58:52.945Z,100625.56
